sensor_id;sensor_type;location;lat;lon;timestamp;pressure;altitude;pressure_sealevel;temperature;humidity
73821;BME280;62150;43.582;1.456;2023-09-30T03:51:09;100834.94;;;25.05;100.00
73821;BME280;62150;43.582;1.456;2023-09-30T03:53:40;100827.50;;;25.87;100.00
73821;BME280;62150;43.582;1.456;2023-09-30T03:56:07;100828.44;;;26.43;100.00
73821;BME280;62150;43.582;1.456;2023-09-30T03:58:40;100830.91;;;26.54;100.00
73821;BME280;62150;43.582;1.456;2023-09-30T04:01:08;100831.47;;;26.48;100.00
73821;BME280;62150;43.582;1.456;2023-09-30T04:03:37;100828.06;;;26.65;100.00
73821;BME280;62150;43.582;1.456;2023-09-30T04:06:07;100830.41;;;25.46;100.00
73821;BME280;62150;43.582;1.456;2023-09-30T04:08:42;100828.53;;;26.14;100.00
73821;BME280;62150;43.582;1.456;2023-09-30T04:11:10;100828.81;;;26.01;100.00
73821;BME280;62150;43.582;1.456;2023-09-30T04:13:43;100827.66;;;26.23;100.00
73821;BME280;62150;43.582;1.456;2023-09-30T04:16:11;100828.03;;;25.91;100.00
73821;BME280;62150;43.582;1.456;2023-09-30T04:18:39;100824.91;;;26.15;100.00
73821;BME280;62150;43.582;1.456;2023-09-30T04:21:08;100826.09;;;25.83;100.00
73821;BME280;62150;43.582;1.456;2023-09-30T04:23:37;100830.38;;;25.94;100.00
73821;BME280;62150;43.582;1.456;2023-09-30T04:26:15;100822.16;;;26.07;100.00
73821;BME280;62150;43.582;1.456;2023-09-30T04:28:42;100825.78;;;26.52;100.00
73821;BME280;62150;43.582;1.456;2023-09-30T04:31:10;100819.59;;;26.34;100.00
73821;BME280;62150;43.582;1.456;2023-09-30T04:33:41;100822.09;;;26.35;100.00
73821;BME280;62150;43.582;1.456;2023-09-30T04:36:09;100819.69;;;26.42;100.00
73821;BME280;62150;43.582;1.456;2023-09-30T04:38:37;100814.50;;;26.32;100.00
73821;BME280;62150;43.582;1.456;2023-09-30T04:41:04;100820.28;;;25.70;100.00
73821;BME280;62150;43.582;1.456;2023-09-30T04:43:33;100823.03;;;25.01;100.00
73821;BME280;62150;43.582;1.456;2023-09-30T04:46:01;100812.69;;;25.57;100.00
73821;BME280;62150;43.582;1.456;2023-09-30T04:48:29;100811.47;;;26.08;100.00
73821;BME280;62150;43.582;1.456;2023-09-30T04:50:58;100818.91;;;25.47;100.00
73821;BME280;62150;43.582;1.456;2023-09-30T04:53:27;100815.03;;;25.80;100.00
73821;BME280;62150;43.582;1.456;2023-09-30T04:55:55;100826.38;;;25.90;100.00
73821;BME280;62150;43.582;1.456;2023-09-30T04:58:22;100825.44;;;25.62;100.00
73821;BME280;62150;43.582;1.456;2023-09-30T05:00:50;100835.25;;;25.79;100.00
73821;BME280;62150;43.582;1.456;2023-09-30T05:03:18;100835.22;;;25.02;100.00
73821;BME280;62150;43.582;1.456;2023-09-30T05:05:45;100842.75;;;25.26;100.00
73821;BME280;62150;43.582;1.456;2023-09-30T05:08:13;100835.81;;;25.54;100.00
73821;BME280;62150;43.582;1.456;2023-09-30T05:10:43;100839.00;;;25.28;100.00
73821;BME280;62150;43.582;1.456;2023-09-30T05:13:10;100844.25;;;25.19;100.00
73821;BME280;62150;43.582;1.456;2023-09-30T05:15:38;100845.22;;;25.27;100.00
73821;BME280;62150;43.582;1.456;2023-09-30T05:18:07;100854.16;;;24.56;100.00
73821;BME280;62150;43.582;1.456;2023-09-30T05:20:38;100858.59;;;25.05;100.00
73821;BME280;62150;43.582;1.456;2023-09-30T05:23:07;100851.19;;;24.80;100.00
73821;BME280;62150;43.582;1.456;2023-09-30T05:25:35;100864.88;;;25.23;100.00
73821;BME280;62150;43.582;1.456;2023-09-30T05:28:05;100863.50;;;25.19;100.00
73821;BME280;62150;43.582;1.456;2023-09-30T05:30:33;100862.94;;;25.35;100.00
73821;BME280;62150;43.582;1.456;2023-09-30T05:33:01;100864.34;;;24.49;100.00
73821;BME280;62150;43.582;1.456;2023-09-30T05:35:29;100870.09;;;24.13;100.00
73821;BME280;62150;43.582;1.456;2023-09-30T05:37:58;100861.00;;;24.78;100.00
73821;BME280;62150;43.582;1.456;2023-09-30T05:40:25;100870.72;;;24.47;100.00
73821;BME280;62150;43.582;1.456;2023-09-30T05:42:57;100866.13;;;24.79;100.00
73821;BME280;62150;43.582;1.456;2023-09-30T05:45:27;100872.94;;;25.60;100.00
73821;BME280;62150;43.582;1.456;2023-09-30T05:47:55;100875.41;;;25.23;100.00
73821;BME280;62150;43.582;1.456;2023-09-30T05:50:25;100868.47;;;25.42;100.00
73821;BME280;62150;43.582;1.456;2023-09-30T05:52:53;100867.66;;;24.00;100.00
73821;BME280;62150;43.582;1.456;2023-09-30T05:55:21;100862.38;;;25.12;100.00
73821;BME280;62150;43.582;1.456;2023-09-30T05:57:49;100865.44;;;25.56;100.00
73821;BME280;62150;43.582;1.456;2023-09-30T06:00:17;100879.69;;;25.24;100.00
73821;BME280;62150;43.582;1.456;2023-09-30T06:02:50;100880.41;;;25.55;100.00
73821;BME280;62150;43.582;1.456;2023-09-30T06:05:18;100879.78;;;25.03;100.00
73821;BME280;62150;43.582;1.456;2023-09-30T06:07:46;100875.84;;;24.88;100.00
73821;BME280;62150;43.582;1.456;2023-09-30T06:10:14;100885.53;;;24.88;100.00
73821;BME280;62150;43.582;1.456;2023-09-30T06:12:42;100883.34;;;24.62;100.00
73821;BME280;62150;43.582;1.456;2023-09-30T06:15:10;100884.53;;;25.19;100.00
73821;BME280;62150;43.582;1.456;2023-09-30T06:17:39;100888.41;;;24.85;100.00
73821;BME280;62150;43.582;1.456;2023-09-30T06:20:09;100892.00;;;25.24;100.00
73821;BME280;62150;43.582;1.456;2023-09-30T06:22:42;100887.47;;;24.55;100.00
73821;BME280;62150;43.582;1.456;2023-09-30T06:25:11;100885.91;;;24.43;100.00
73821;BME280;62150;43.582;1.456;2023-09-30T06:27:42;100896.50;;;25.02;100.00
73821;BME280;62150;43.582;1.456;2023-09-30T06:30:11;100897.19;;;24.34;100.00
73821;BME280;62150;43.582;1.456;2023-09-30T06:32:39;100898.53;;;24.89;100.00
73821;BME280;62150;43.582;1.456;2023-09-30T06:35:09;100903.78;;;24.89;100.00
73821;BME280;62150;43.582;1.456;2023-09-30T06:37:37;100901.34;;;24.97;100.00
73821;BME280;62150;43.582;1.456;2023-09-30T06:40:06;100901.50;;;25.05;100.00
73821;BME280;62150;43.582;1.456;2023-09-30T06:42:35;100900.94;;;25.02;100.00
73821;BME280;62150;43.582;1.456;2023-09-30T06:45:03;100905.16;;;25.24;100.00
73821;BME280;62150;43.582;1.456;2023-09-30T06:47:32;100902.03;;;24.99;100.00
73821;BME280;62150;43.582;1.456;2023-09-30T06:50:00;100902.25;;;25.27;100.00
73821;BME280;62150;43.582;1.456;2023-09-30T06:52:36;100903.59;;;25.12;100.00
73821;BME280;62150;43.582;1.456;2023-09-30T06:55:04;100914.53;;;25.07;100.00
73821;BME280;62150;43.582;1.456;2023-09-30T06:57:32;100914.31;;;24.89;100.00
73821;BME280;62150;43.582;1.456;2023-09-30T07:00:00;100911.78;;;24.78;100.00
73821;BME280;62150;43.582;1.456;2023-09-30T07:02:27;100916.69;;;24.92;100.00
73821;BME280;62150;43.582;1.456;2023-09-30T07:04:55;100917.84;;;24.79;100.00
73821;BME280;62150;43.582;1.456;2023-09-30T07:07:23;100926.78;;;24.36;100.00
73821;BME280;62150;43.582;1.456;2023-09-30T07:09:52;100921.78;;;24.33;100.00
73821;BME280;62150;43.582;1.456;2023-09-30T07:12:20;100915.63;;;24.23;100.00
73821;BME280;62150;43.582;1.456;2023-09-30T07:14:47;100924.03;;;23.85;100.00
73821;BME280;62150;43.582;1.456;2023-09-30T07:17:15;100914.53;;;24.46;100.00
73821;BME280;62150;43.582;1.456;2023-09-30T07:19:42;100915.53;;;25.25;100.00
73821;BME280;62150;43.582;1.456;2023-09-30T07:22:10;100916.38;;;25.35;100.00
73821;BME280;62150;43.582;1.456;2023-09-30T07:24:37;100916.59;;;25.82;100.00
73821;BME280;62150;43.582;1.456;2023-09-30T07:27:06;100927.22;;;25.52;100.00
73821;BME280;62150;43.582;1.456;2023-09-30T07:29:36;100931.56;;;25.91;100.00
73821;BME280;62150;43.582;1.456;2023-09-30T07:32:04;100929.69;;;25.44;100.00
73821;BME280;62150;43.582;1.456;2023-09-30T07:34:31;100934.66;;;25.27;100.00
73821;BME280;62150;43.582;1.456;2023-09-30T07:36:59;100936.84;;;25.32;100.00
73821;BME280;62150;43.582;1.456;2023-09-30T07:39:26;100941.50;;;26.17;100.00
73821;BME280;62150;43.582;1.456;2023-09-30T07:41:54;100948.31;;;25.90;100.00
73821;BME280;62150;43.582;1.456;2023-09-30T07:44:23;100948.16;;;26.30;100.00
73821;BME280;62150;43.582;1.456;2023-09-30T07:46:50;100947.34;;;25.82;100.00
73821;BME280;62150;43.582;1.456;2023-09-30T07:49:18;100946.75;;;26.07;100.00
73821;BME280;62150;43.582;1.456;2023-09-30T07:51:46;100951.88;;;25.60;100.00
73821;BME280;62150;43.582;1.456;2023-09-30T07:54:13;100950.50;;;26.14;100.00
73821;BME280;62150;43.582;1.456;2023-09-30T07:56:41;100953.41;;;26.21;100.00
73821;BME280;62150;43.582;1.456;2023-09-30T07:59:11;100952.56;;;26.49;100.00
73821;BME280;62150;43.582;1.456;2023-09-30T08:01:42;100955.50;;;26.27;100.00
73821;BME280;62150;43.582;1.456;2023-09-30T08:04:09;100950.63;;;26.98;100.00
73821;BME280;62150;43.582;1.456;2023-09-30T08:06:37;100957.41;;;26.54;100.00
73821;BME280;62150;43.582;1.456;2023-09-30T08:09:05;100954.78;;;26.91;100.00
73821;BME280;62150;43.582;1.456;2023-09-30T08:11:36;100957.19;;;26.75;100.00
73821;BME280;62150;43.582;1.456;2023-09-30T08:14:03;100963.03;;;26.68;100.00
73821;BME280;62150;43.582;1.456;2023-09-30T08:16:33;100963.06;;;27.33;100.00
73821;BME280;62150;43.582;1.456;2023-09-30T08:19:02;100960.03;;;27.46;100.00
73821;BME280;62150;43.582;1.456;2023-09-30T08:21:29;100957.66;;;26.60;100.00
73821;BME280;62150;43.582;1.456;2023-09-30T08:23:57;100959.09;;;26.82;100.00
73821;BME280;62150;43.582;1.456;2023-09-30T08:26:25;100951.03;;;27.21;100.00
73821;BME280;62150;43.582;1.456;2023-09-30T08:28:52;100954.84;;;27.54;100.00
73821;BME280;62150;43.582;1.456;2023-09-30T08:31:20;100956.34;;;27.66;100.00
73821;BME280;62150;43.582;1.456;2023-09-30T08:33:48;100954.03;;;27.35;100.00
73821;BME280;62150;43.582;1.456;2023-09-30T08:36:17;100954.53;;;27.66;100.00
73821;BME280;62150;43.582;1.456;2023-09-30T08:38:45;100954.00;;;27.63;100.00
73821;BME280;62150;43.582;1.456;2023-09-30T08:41:32;100951.41;;;27.89;100.00
73821;BME280;62150;43.582;1.456;2023-09-30T08:44:01;100948.59;;;27.37;100.00
73821;BME280;62150;43.582;1.456;2023-09-30T08:46:31;100947.72;;;27.64;100.00
73821;BME280;62150;43.582;1.456;2023-09-30T08:49:01;100947.28;;;27.68;100.00
73821;BME280;62150;43.582;1.456;2023-09-30T08:51:31;100950.81;;;27.95;100.00
73821;BME280;62150;43.582;1.456;2023-09-30T08:54:00;100948.78;;;27.26;100.00
73821;BME280;62150;43.582;1.456;2023-09-30T08:56:31;100948.31;;;27.93;100.00
73821;BME280;62150;43.582;1.456;2023-09-30T08:59:00;100949.44;;;28.26;100.00
73821;BME280;62150;43.582;1.456;2023-09-30T09:01:30;100946.06;;;27.63;100.00
73821;BME280;62150;43.582;1.456;2023-09-30T09:03:58;100941.31;;;28.02;100.00
73821;BME280;62150;43.582;1.456;2023-09-30T09:06:26;100941.66;;;28.51;100.00
73821;BME280;62150;43.582;1.456;2023-09-30T09:08:55;100945.59;;;28.47;100.00
73821;BME280;62150;43.582;1.456;2023-09-30T09:11:39;100952.09;;;27.73;100.00
73821;BME280;62150;43.582;1.456;2023-09-30T09:14:07;100950.78;;;28.13;100.00
73821;BME280;62150;43.582;1.456;2023-09-30T09:16:34;100948.06;;;28.48;100.00
73821;BME280;62150;43.582;1.456;2023-09-30T09:19:14;100944.50;;;28.57;100.00
73821;BME280;62150;43.582;1.456;2023-09-30T09:21:54;100949.84;;;28.65;100.00
73821;BME280;62150;43.582;1.456;2023-09-30T09:24:34;100949.56;;;28.07;100.00
73821;BME280;62150;43.582;1.456;2023-09-30T09:27:06;100944.88;;;28.37;100.00
73821;BME280;62150;43.582;1.456;2023-09-30T09:29:34;100952.97;;;28.35;100.00
73821;BME280;62150;43.582;1.456;2023-09-30T09:32:09;100939.56;;;28.88;99.26
73821;BME280;62150;43.582;1.456;2023-09-30T09:34:38;100935.38;;;29.28;99.80
73821;BME280;62150;43.582;1.456;2023-09-30T09:37:16;100921.72;;;29.49;96.51
73821;BME280;62150;43.582;1.456;2023-09-30T09:39:52;100923.84;;;29.37;96.80
73821;BME280;62150;43.582;1.456;2023-09-30T09:42:27;100929.88;;;29.05;97.70
73821;BME280;62150;43.582;1.456;2023-09-30T09:44:56;100926.03;;;29.42;95.92
73821;BME280;62150;43.582;1.456;2023-09-30T09:47:24;100921.72;;;29.49;95.63
73821;BME280;62150;43.582;1.456;2023-09-30T09:49:53;100927.84;;;29.57;94.44
73821;BME280;62150;43.582;1.456;2023-09-30T09:52:21;100925.75;;;29.77;93.29
73821;BME280;62150;43.582;1.456;2023-09-30T09:54:51;100923.94;;;29.19;95.94
73821;BME280;62150;43.582;1.456;2023-09-30T09:57:19;100920.75;;;29.42;92.49
73821;BME280;62150;43.582;1.456;2023-09-30T09:59:47;100922.72;;;30.21;89.21
73821;BME280;62150;43.582;1.456;2023-09-30T10:02:16;100911.59;;;29.36;91.26
73821;BME280;62150;43.582;1.456;2023-09-30T10:04:44;100916.41;;;29.49;91.02
73821;BME280;62150;43.582;1.456;2023-09-30T10:07:16;100911.97;;;29.90;89.89
73821;BME280;62150;43.582;1.456;2023-09-30T10:09:49;100908.03;;;30.10;88.64
73821;BME280;62150;43.582;1.456;2023-09-30T10:12:20;100911.50;;;29.78;89.64
73821;BME280;62150;43.582;1.456;2023-09-30T10:14:49;100900.84;;;30.27;86.33
73821;BME280;62150;43.582;1.456;2023-09-30T10:17:17;100903.69;;;29.60;89.90
73821;BME280;62150;43.582;1.456;2023-09-30T10:20:03;100904.69;;;29.59;89.07
73821;BME280;62150;43.582;1.456;2023-09-30T10:22:31;100894.38;;;30.38;86.68
73821;BME280;62150;43.582;1.456;2023-09-30T10:24:59;100887.47;;;30.76;86.94
73821;BME280;62150;43.582;1.456;2023-09-30T10:27:36;100884.41;;;30.87;84.35
73821;BME280;62150;43.582;1.456;2023-09-30T10:30:07;100889.03;;;30.93;82.81
73821;BME280;62150;43.582;1.456;2023-09-30T10:33:07;100891.75;;;30.21;84.64
73821;BME280;62150;43.582;1.456;2023-09-30T10:35:48;100883.47;;;30.80;81.96
73821;BME280;62150;43.582;1.456;2023-09-30T10:38:37;100878.75;;;30.90;84.09
73821;BME280;62150;43.582;1.456;2023-09-30T10:41:09;100872.72;;;30.73;81.91
73821;BME280;62150;43.582;1.456;2023-09-30T10:43:40;100874.84;;;31.17;80.83
73821;BME280;62150;43.582;1.456;2023-09-30T10:46:32;100887.44;;;30.84;83.40
73821;BME280;62150;43.582;1.456;2023-09-30T10:49:29;100891.94;;;29.95;88.53
73821;BME280;62150;43.582;1.456;2023-09-30T10:51:59;100883.94;;;30.28;86.57
73821;BME280;62150;43.582;1.456;2023-09-30T10:54:28;100864.28;;;31.31;82.20
73821;BME280;62150;43.582;1.456;2023-09-30T10:56:57;100867.94;;;30.69;83.40
73821;BME280;62150;43.582;1.456;2023-09-30T10:59:29;100862.75;;;31.14;81.33
73821;BME280;62150;43.582;1.456;2023-09-30T11:01:57;100861.25;;;31.35;82.29
73821;BME280;62150;43.582;1.456;2023-09-30T11:04:25;100860.09;;;31.37;80.64
73821;BME280;62150;43.582;1.456;2023-09-30T11:06:54;100860.75;;;31.08;80.96
73821;BME280;62150;43.582;1.456;2023-09-30T11:09:23;100860.75;;;31.16;80.71
73821;BME280;62150;43.582;1.456;2023-09-30T11:11:51;100857.41;;;31.83;75.70
73821;BME280;62150;43.582;1.456;2023-09-30T11:14:21;100859.06;;;31.84;74.04
73821;BME280;62150;43.582;1.456;2023-09-30T11:16:52;100859.66;;;31.71;78.42
73821;BME280;62150;43.582;1.456;2023-09-30T11:19:20;100850.00;;;32.08;77.45
73821;BME280;62150;43.582;1.456;2023-09-30T11:21:49;100857.69;;;32.03;75.45
73821;BME280;62150;43.582;1.456;2023-09-30T11:24:17;100848.75;;;32.18;75.13
73821;BME280;62150;43.582;1.456;2023-09-30T11:26:45;100855.53;;;31.69;76.02
73821;BME280;62150;43.582;1.456;2023-09-30T11:29:14;100844.31;;;31.81;74.52
73821;BME280;62150;43.582;1.456;2023-09-30T11:31:43;100853.91;;;31.45;75.63
73821;BME280;62150;43.582;1.456;2023-09-30T11:34:12;100847.06;;;31.65;70.93
73821;BME280;62150;43.582;1.456;2023-09-30T11:36:46;100843.59;;;32.17;69.86
73821;BME280;62150;43.582;1.456;2023-09-30T11:39:22;100839.91;;;31.51;75.69
73821;BME280;62150;43.582;1.456;2023-09-30T11:41:51;100833.03;;;31.79;71.66
73821;BME280;62150;43.582;1.456;2023-09-30T11:44:18;100831.56;;;32.80;62.52
73821;BME280;62150;43.582;1.456;2023-09-30T11:46:50;100834.78;;;32.02;68.96
73821;BME280;62150;43.582;1.456;2023-09-30T11:49:29;100827.78;;;33.10;63.36
73821;BME280;62150;43.582;1.456;2023-09-30T11:51:58;100828.44;;;33.34;60.33
73821;BME280;62150;43.582;1.456;2023-09-30T11:54:30;100826.88;;;31.93;66.68
73821;BME280;62150;43.582;1.456;2023-09-30T11:56:58;100819.16;;;32.21;66.89
73821;BME280;62150;43.582;1.456;2023-09-30T11:59:25;100817.56;;;32.12;63.95
73821;BME280;62150;43.582;1.456;2023-09-30T12:01:53;100806.38;;;32.31;62.90
73821;BME280;62150;43.582;1.456;2023-09-30T12:04:21;100812.44;;;32.40;62.91
73821;BME280;62150;43.582;1.456;2023-09-30T12:06:50;100798.31;;;32.90;62.40
73821;BME280;62150;43.582;1.456;2023-09-30T12:09:18;100808.81;;;32.62;62.40
73821;BME280;62150;43.582;1.456;2023-09-30T12:11:48;100804.63;;;32.53;64.29
73821;BME280;62150;43.582;1.456;2023-09-30T12:14:16;100799.50;;;32.73;61.16
73821;BME280;62150;43.582;1.456;2023-09-30T12:16:43;100800.91;;;33.26;57.11
73821;BME280;62150;43.582;1.456;2023-09-30T12:19:12;100784.78;;;33.56;54.16
73821;BME280;62150;43.582;1.456;2023-09-30T12:21:42;100791.69;;;33.50;56.87
73821;BME280;62150;43.582;1.456;2023-09-30T12:24:12;100789.66;;;33.52;56.49
73821;BME280;62150;43.582;1.456;2023-09-30T12:26:42;100792.34;;;32.74;60.21
73821;BME280;62150;43.582;1.456;2023-09-30T12:29:14;100784.91;;;33.05;56.34
73821;BME280;62150;43.582;1.456;2023-09-30T12:31:43;100775.16;;;33.89;52.92
73821;BME280;62150;43.582;1.456;2023-09-30T12:34:12;100777.06;;;33.18;56.29
73821;BME280;62150;43.582;1.456;2023-09-30T12:36:40;100771.88;;;33.10;57.12
73821;BME280;62150;43.582;1.456;2023-09-30T12:39:12;100767.38;;;33.88;55.35
73821;BME280;62150;43.582;1.456;2023-09-30T12:41:41;100765.59;;;34.49;50.02
73821;BME280;62150;43.582;1.456;2023-09-30T12:44:09;100761.31;;;34.55;49.75
73821;BME280;62150;43.582;1.456;2023-09-30T12:46:37;100759.78;;;34.93;51.54
73821;BME280;62150;43.582;1.456;2023-09-30T12:49:05;100755.16;;;34.68;51.53
73821;BME280;62150;43.582;1.456;2023-09-30T12:51:33;100751.19;;;33.89;54.57
73821;BME280;62150;43.582;1.456;2023-09-30T12:54:01;100762.13;;;33.73;51.98
73821;BME280;62150;43.582;1.456;2023-09-30T12:56:30;100771.88;;;33.10;54.72
73821;BME280;62150;43.582;1.456;2023-09-30T12:58:58;100771.91;;;33.66;52.78
73821;BME280;62150;43.582;1.456;2023-09-30T13:01:26;100759.28;;;34.70;49.23
73821;BME280;62150;43.582;1.456;2023-09-30T13:03:54;100757.03;;;33.78;51.73
73821;BME280;62150;43.582;1.456;2023-09-30T13:06:22;100745.88;;;34.44;47.50
73821;BME280;62150;43.582;1.456;2023-09-30T13:08:49;100738.13;;;34.55;49.03
73821;BME280;62150;43.582;1.456;2023-09-30T13:11:17;100740.25;;;35.46;45.69
73821;BME280;62150;43.582;1.456;2023-09-30T13:13:45;100743.06;;;34.11;48.33
73821;BME280;62150;43.582;1.456;2023-09-30T13:16:13;100735.75;;;35.26;47.36
73821;BME280;62150;43.582;1.456;2023-09-30T13:18:40;100730.78;;;35.50;44.68
73821;BME280;62150;43.582;1.456;2023-09-30T13:21:11;100726.78;;;34.40;47.90
73821;BME280;62150;43.582;1.456;2023-09-30T13:23:40;100720.59;;;34.33;48.51
73821;BME280;62150;43.582;1.456;2023-09-30T13:26:08;100719.00;;;35.77;44.78
73821;BME280;62150;43.582;1.456;2023-09-30T13:28:35;100710.59;;;36.25;43.40
73821;BME280;62150;43.582;1.456;2023-09-30T13:31:04;100722.69;;;36.72;40.16
73821;BME280;62150;43.582;1.456;2023-09-30T13:33:32;100707.16;;;35.20;43.15
73821;BME280;62150;43.582;1.456;2023-09-30T13:35:59;100709.44;;;35.37;44.01
73821;BME280;62150;43.582;1.456;2023-09-30T13:38:28;100706.75;;;35.50;43.32
73821;BME280;62150;43.582;1.456;2023-09-30T13:40:56;100702.28;;;36.02;42.39
73821;BME280;62150;43.582;1.456;2023-09-30T13:43:23;100708.47;;;36.40;41.61
73821;BME280;62150;43.582;1.456;2023-09-30T13:45:52;100715.13;;;36.94;40.68
73821;BME280;62150;43.582;1.456;2023-09-30T13:48:21;100702.91;;;36.04;41.08
73821;BME280;62150;43.582;1.456;2023-09-30T13:50:49;100700.16;;;35.39;43.77
73821;BME280;62150;43.582;1.456;2023-09-30T13:53:16;100697.88;;;35.56;42.43
73821;BME280;62150;43.582;1.456;2023-09-30T13:55:44;100702.03;;;35.39;42.74
73821;BME280;62150;43.582;1.456;2023-09-30T13:58:12;100704.50;;;35.20;43.58
73821;BME280;62150;43.582;1.456;2023-09-30T14:00:45;100707.94;;;35.67;42.68
73821;BME280;62150;43.582;1.456;2023-09-30T14:03:13;100696.63;;;36.30;40.81
73821;BME280;62150;43.582;1.456;2023-09-30T14:05:42;100696.84;;;36.21;39.53
73821;BME280;62150;43.582;1.456;2023-09-30T14:08:11;100690.06;;;36.12;41.02
73821;BME280;62150;43.582;1.456;2023-09-30T14:10:40;100701.53;;;35.75;41.75
73821;BME280;62150;43.582;1.456;2023-09-30T14:13:07;100700.94;;;36.24;41.01
73821;BME280;62150;43.582;1.456;2023-09-30T14:15:35;100691.94;;;36.81;38.53
73821;BME280;62150;43.582;1.456;2023-09-30T14:18:03;100690.09;;;36.50;39.32
73821;BME280;62150;43.582;1.456;2023-09-30T14:20:30;100692.03;;;36.68;37.90
73821;BME280;62150;43.582;1.456;2023-09-30T14:23:01;100685.25;;;36.97;39.00
73821;BME280;62150;43.582;1.456;2023-09-30T14:25:29;100687.69;;;35.98;39.42
73821;BME280;62150;43.582;1.456;2023-09-30T14:27:56;100679.97;;;36.84;38.57
73821;BME280;62150;43.582;1.456;2023-09-30T14:30:26;100674.84;;;37.07;36.91
73821;BME280;62150;43.582;1.456;2023-09-30T14:32:53;100668.97;;;37.17;36.94
73821;BME280;62150;43.582;1.456;2023-09-30T14:35:21;100670.47;;;37.74;37.55
73821;BME280;62150;43.582;1.456;2023-09-30T14:37:48;100663.31;;;37.68;35.75
73821;BME280;62150;43.582;1.456;2023-09-30T14:40:17;100674.59;;;37.09;36.09
73821;BME280;62150;43.582;1.456;2023-09-30T14:42:45;100679.97;;;36.28;37.93
73821;BME280;62150;43.582;1.456;2023-09-30T14:45:12;100670.84;;;36.67;36.83
73821;BME280;62150;43.582;1.456;2023-09-30T14:47:40;100667.81;;;36.56;37.73
73821;BME280;62150;43.582;1.456;2023-09-30T14:50:08;100663.06;;;37.51;35.96
73821;BME280;62150;43.582;1.456;2023-09-30T14:52:36;100660.91;;;36.99;36.67
73821;BME280;62150;43.582;1.456;2023-09-30T14:55:04;100657.25;;;37.11;37.12
73821;BME280;62150;43.582;1.456;2023-09-30T14:57:33;100660.97;;;36.92;36.95
73821;BME280;62150;43.582;1.456;2023-09-30T15:00:00;100662.81;;;35.97;39.16
73821;BME280;62150;43.582;1.456;2023-09-30T15:02:28;100659.09;;;36.68;37.43
73821;BME280;62150;43.582;1.456;2023-09-30T15:04:56;100645.59;;;38.27;36.27
73821;BME280;62150;43.582;1.456;2023-09-30T15:07:23;100649.38;;;37.16;36.72
73821;BME280;62150;43.582;1.456;2023-09-30T15:09:51;100661.06;;;36.47;36.67
73821;BME280;62150;43.582;1.456;2023-09-30T15:12:20;100652.38;;;35.82;37.99
73821;BME280;62150;43.582;1.456;2023-09-30T15:14:49;100649.25;;;38.03;35.17
73821;BME280;62150;43.582;1.456;2023-09-30T15:17:17;100650.19;;;37.23;36.00
73821;BME280;62150;43.582;1.456;2023-09-30T15:19:45;100656.66;;;36.91;37.18
73821;BME280;62150;43.582;1.456;2023-09-30T15:22:12;100653.75;;;36.36;37.79
73821;BME280;62150;43.582;1.456;2023-09-30T15:24:40;100650.84;;;36.94;37.36
73821;BME280;62150;43.582;1.456;2023-09-30T15:27:08;100642.88;;;37.49;35.68
73821;BME280;62150;43.582;1.456;2023-09-30T15:29:36;100654.16;;;36.65;37.29
73821;BME280;62150;43.582;1.456;2023-09-30T15:32:05;100636.00;;;38.19;35.03
73821;BME280;62150;43.582;1.456;2023-09-30T15:34:36;100629.31;;;37.44;35.51
73821;BME280;62150;43.582;1.456;2023-09-30T15:37:04;100646.75;;;36.67;36.16
73821;BME280;62150;43.582;1.456;2023-09-30T15:39:38;100636.03;;;36.91;36.04
73821;BME280;62150;43.582;1.456;2023-09-30T15:42:06;100627.66;;;37.06;35.45
73821;BME280;62150;43.582;1.456;2023-09-30T15:44:35;100637.09;;;36.34;36.25
73821;BME280;62150;43.582;1.456;2023-09-30T15:47:04;100641.84;;;36.32;36.15
73821;BME280;62150;43.582;1.456;2023-09-30T15:49:32;100635.53;;;37.01;35.70
73821;BME280;62150;43.582;1.456;2023-09-30T15:51:59;100635.22;;;37.09;34.78
73821;BME280;62150;43.582;1.456;2023-09-30T15:54:27;100632.75;;;36.89;35.56
73821;BME280;62150;43.582;1.456;2023-09-30T15:56:54;100619.66;;;37.24;35.88
73821;BME280;62150;43.582;1.456;2023-09-30T15:59:22;100614.44;;;37.48;35.46
73821;BME280;62150;43.582;1.456;2023-09-30T16:01:49;100629.19;;;36.46;35.68
73821;BME280;62150;43.582;1.456;2023-09-30T16:04:19;100623.16;;;36.50;36.38
73821;BME280;62150;43.582;1.456;2023-09-30T16:06:46;100612.44;;;35.87;37.51
73821;BME280;62150;43.582;1.456;2023-09-30T16:09:14;100618.50;;;36.39;37.47
73821;BME280;62150;43.582;1.456;2023-09-30T16:11:42;100626.47;;;35.70;37.49
73821;BME280;62150;43.582;1.456;2023-09-30T16:14:10;100621.66;;;36.36;36.74
73821;BME280;62150;43.582;1.456;2023-09-30T16:16:38;100612.50;;;37.37;35.60
73821;BME280;62150;43.582;1.456;2023-09-30T16:19:06;100620.00;;;36.35;36.85
73821;BME280;62150;43.582;1.456;2023-09-30T16:21:35;100617.88;;;36.44;37.44
73821;BME280;62150;43.582;1.456;2023-09-30T16:24:02;100619.88;;;35.72;38.91
73821;BME280;62150;43.582;1.456;2023-09-30T16:26:30;100613.59;;;35.60;39.15
73821;BME280;62150;43.582;1.456;2023-09-30T16:28:57;100613.03;;;36.59;37.56
73821;BME280;62150;43.582;1.456;2023-09-30T16:31:26;100611.84;;;36.17;38.27
73821;BME280;62150;43.582;1.456;2023-09-30T16:33:53;100609.41;;;34.93;40.45
73821;BME280;62150;43.582;1.456;2023-09-30T16:36:21;100612.22;;;35.96;38.67
73821;BME280;62150;43.582;1.456;2023-09-30T16:38:49;100605.66;;;35.20;40.82
73821;BME280;62150;43.582;1.456;2023-09-30T16:41:17;100613.84;;;35.45;40.62
73821;BME280;62150;43.582;1.456;2023-09-30T16:43:45;100604.19;;;35.96;39.12
73821;BME280;62150;43.582;1.456;2023-09-30T16:46:12;100608.41;;;36.41;38.29